Time;durP1;ratioP1;P1;durP2;ratioP2;P2;SDS_P1;SDS_P2;PMS_P1;PMS_P2;Temp;Humidity;BMP_temperature;BMP_pressure;BME280_temperature;BME280_humidity;BME280_pressure;Samples;Min_cycle;Max_cycle;Signal;HPM_P1;HPM_P2
2021/09/22 00:00:07;;;;;;;0.40;0.30;;;11.40;99.90;;;;;;5013723;28;20880;-77
2021/09/22 00:02:33;;;;;;;0.40;0.20;;;11.30;99.90;;;;;;5013047;28;20853;-76
2021/09/22 00:04:58;;;;;;;0.40;0.30;;;11.30;99.90;;;;;;5013576;28;20477;-76
2021/09/22 00:07:24;;;;;;;0.40;0.30;;;11.20;99.90;;;;;;5011792;28;20392;-76
2021/09/22 00:09:50;;;;;;;0.40;0.20;;;11.20;99.90;;;;;;5013723;28;20439;-76
2021/09/22 00:12:16;;;;;;;0.40;0.30;;;11.10;99.90;;;;;;5013658;28;20873;-76
2021/09/22 00:14:42;;;;;;;0.40;0.20;;;11.10;99.90;;;;;;5013001;28;20409;-76
2021/09/22 00:17:08;;;;;;;0.40;0.30;;;11.10;99.90;;;;;;5013370;28;20392;-76
2021/09/22 00:19:33;;;;;;;0.40;0.30;;;11.00;99.90;;;;;;5012626;28;20953;-76
2021/09/22 00:21:59;;;;;;;0.40;0.20;;;10.90;99.90;;;;;;5013280;28;20443;-76
2021/09/22 00:24:25;;;;;;;0.40;0.30;;;10.90;99.90;;;;;;5012573;28;20472;-76
2021/09/22 00:26:50;;;;;;;0.60;0.60;;;10.80;99.90;;;;;;5013595;28;20476;-76
2021/09/22 00:29:16;;;;;;;0.40;0.20;;;10.70;99.90;;;;;;5013151;28;20396;-76
2021/09/22 00:31:42;;;;;;;0.40;0.20;;;10.70;99.90;;;;;;5012350;28;20884;-76
2021/09/22 00:34:07;;;;;;;0.40;0.30;;;10.80;99.90;;;;;;5011811;28;20777;-76
2021/09/22 00:36:34;;;;;;;0.52;0.35;;;10.80;99.90;;;;;;5012486;28;20392;-76
2021/09/22 00:39:00;;;;;;;0.40;0.20;;;10.80;99.90;;;;;;5013079;28;20388;-76
2021/09/22 00:41:26;;;;;;;0.40;0.30;;;10.80;99.90;;;;;;5012295;28;20425;-76
2021/09/22 00:43:52;;;;;;;0.40;0.20;;;10.80;99.90;;;;;;5013252;28;20389;-76
2021/09/22 00:46:18;;;;;;;0.40;0.30;;;10.70;99.90;;;;;;5012852;28;20401;-76
2021/09/22 00:48:44;;;;;;;0.40;0.30;;;10.80;99.90;;;;;;5012292;28;20447;-76
2021/09/22 00:51:10;;;;;;;0.40;0.30;;;10.70;99.90;;;;;;5012799;28;20885;-77
2021/09/22 00:53:36;;;;;;;0.40;0.30;;;10.60;99.90;;;;;;5012194;28;20381;-76
2021/09/22 00:56:03;;;;;;;0.40;0.30;;;10.60;99.90;;;;;;5012620;28;20468;-75
2021/09/22 00:58:30;;;;;;;0.40;0.20;;;10.70;99.90;;;;;;5012119;28;20393;-77
2021/09/22 01:00:56;;;;;;;0.40;0.30;;;10.60;99.90;;;;;;4994918;28;20467;-76
2021/09/22 01:03:23;;;;;;;0.40;0.30;;;10.60;99.90;;;;;;5012689;28;20381;-76
2021/09/22 01:05:51;;;;;;;0.40;0.30;;;10.60;99.90;;;;;;5011924;28;20413;-76
2021/09/22 01:08:17;;;;;;;0.40;0.30;;;10.50;99.90;;;;;;5010471;28;20744;-76
2021/09/22 01:10:47;;;;;;;0.40;0.30;;;10.60;99.90;;;;;;5013392;28;20437;-76
2021/09/22 01:13:14;;;;;;;0.40;0.30;;;10.50;99.90;;;;;;5031978;28;20415;-76
2021/09/22 01:15:43;;;;;;;0.50;0.50;;;10.50;99.90;;;;;;5031819;28;20391;-76
2021/09/22 01:18:22;;;;;;;0.40;0.30;;;10.40;99.90;;;;;;5032036;28;20379;-76
2021/09/22 01:20:56;;;;;;;0.40;0.30;;;10.20;99.90;;;;;;5013717;28;20443;-76
2021/09/22 01:23:24;;;;;;;0.40;0.30;;;10.40;99.90;;;;;;5032123;28;20388;-76
2021/09/22 01:25:51;;;;;;;0.40;0.25;;;10.40;99.90;;;;;;5031165;28;20383;-76
2021/09/22 01:28:23;;;;;;;0.40;0.30;;;10.30;99.90;;;;;;5032070;28;20419;-75
2021/09/22 01:30:49;;;;;;;0.40;0.30;;;10.20;99.90;;;;;;5031296;28;20379;-75
2021/09/22 01:33:17;;;;;;;0.40;0.30;;;10.30;99.90;;;;;;5031573;28;20384;-76
2021/09/22 01:35:45;;;;;;;0.40;0.30;;;10.20;99.90;;;;;;5031478;28;20724;-76
2021/09/22 01:38:14;;;;;;;0.40;0.20;;;10.20;99.90;;;;;;5031869;28;20380;-75
2021/09/22 01:40:51;;;;;;;0.40;0.30;;;10.20;99.90;;;;;;5031023;28;20410;-77
2021/09/22 01:43:16;;;;;;;0.40;0.30;;;10.10;99.90;;;;;;5031962;28;20565;-77
2021/09/22 01:45:42;;;;;;;0.40;0.20;;;10.10;99.90;;;;;;5013424;28;20478;-77
2021/09/22 01:48:08;;;;;;;0.40;0.20;;;10.00;99.90;;;;;;5031289;28;20383;-77
2021/09/22 01:50:34;;;;;;;0.40;0.20;;;9.90;99.90;;;;;;5013235;28;20438;-77
2021/09/22 01:52:59;;;;;;;0.40;0.30;;;9.90;99.90;;;;;;5031878;28;20493;-77
2021/09/22 01:55:25;;;;;;;0.40;0.20;;;9.90;99.90;;;;;;5031406;28;20387;-77
2021/09/22 01:57:51;;;;;;;0.40;0.30;;;10.10;99.90;;;;;;5030629;28;20391;-77
2021/09/22 02:00:17;;;;;;;0.40;0.20;;;10.00;99.90;;;;;;5030983;28;20398;-77
2021/09/22 02:02:43;;;;;;;0.40;0.30;;;9.90;99.90;;;;;;5030557;28;20513;-77
2021/09/22 02:05:09;;;;;;;0.40;0.20;;;9.90;99.90;;;;;;5013450;28;20883;-77
2021/09/22 02:07:35;;;;;;;0.40;0.20;;;9.80;99.90;;;;;;5020776;28;20389;-76
2021/09/22 02:10:01;;;;;;;0.40;0.20;;;9.70;99.90;;;;;;5011572;28;20937;-76
2021/09/22 02:12:27;;;;;;;0.40;0.22;;;9.70;99.90;;;;;;5011319;28;20396;-76
2021/09/22 02:14:53;;;;;;;0.40;0.30;;;9.70;99.90;;;;;;5010967;28;20381;-76
2021/09/22 02:17:20;;;;;;;0.40;0.20;;;9.80;99.90;;;;;;5011358;28;20440;-77
2021/09/22 02:19:45;;;;;;;0.40;0.20;;;9.80;99.90;;;;;;5010835;28;20476;-76
2021/09/22 02:22:11;;;;;;;0.40;0.22;;;9.90;99.90;;;;;;5010413;28;20806;-76
2021/09/22 02:24:42;;;;;;;0.40;0.30;;;9.90;99.90;;;;;;5010784;28;20757;-76
2021/09/22 02:27:09;;;;;;;0.40;0.30;;;9.90;99.90;;;;;;5011308;28;20389;-76
2021/09/22 02:29:35;;;;;;;0.40;0.20;;;9.90;99.90;;;;;;5010804;28;20392;-77
2021/09/22 02:32:00;;;;;;;0.40;0.20;;;9.80;99.90;;;;;;5010942;28;20385;-77
2021/09/22 02:34:26;;;;;;;0.40;0.30;;;9.80;99.90;;;;;;5011081;28;20470;-77
2021/09/22 02:36:52;;;;;;;0.40;0.20;;;9.80;99.90;;;;;;5010556;28;20467;-77
2021/09/22 02:39:18;;;;;;;0.40;0.20;;;9.70;99.90;;;;;;5011550;28;20397;-77
2021/09/22 02:41:43;;;;;;;0.40;0.20;;;9.50;99.90;;;;;;5010419;28;20427;-77
2021/09/22 02:44:09;;;;;;;0.40;0.20;;;9.60;99.90;;;;;;5011218;28;20806;-76
2021/09/22 02:46:35;;;;;;;0.40;0.20;;;9.60;99.90;;;;;;5010524;28;20737;-77
2021/09/22 02:49:00;;;;;;;0.40;0.30;;;9.50;99.90;;;;;;5010810;28;20384;-77
2021/09/22 02:51:26;;;;;;;0.40;0.20;;;9.60;99.90;;;;;;4993509;28;20389;-76
2021/09/22 02:53:51;;;;;;;0.40;0.20;;;9.60;99.90;;;;;;4992713;28;20869;-77
2021/09/22 02:56:17;;;;;;;0.40;0.30;;;9.50;99.90;;;;;;5011416;28;20385;-76
2021/09/22 02:58:43;;;;;;;0.40;0.20;;;9.40;99.90;;;;;;5010501;28;20388;-77
2021/09/22 03:01:09;;;;;;;0.40;0.30;;;9.40;99.90;;;;;;5010917;28;20407;-77
2021/09/22 03:03:34;;;;;;;0.40;0.30;;;9.40;99.90;;;;;;5010466;28;20393;-77
2021/09/22 03:06:01;;;;;;;0.40;0.30;;;9.30;99.90;;;;;;5010875;28;20385;-77
2021/09/22 03:08:26;;;;;;;0.40;0.20;;;9.50;99.90;;;;;;5027852;28;20520;-76
2021/09/22 03:10:52;;;;;;;0.40;0.20;;;9.40;99.90;;;;;;5030109;28;20976;-76
2021/09/22 03:13:18;;;;;;;0.40;0.30;;;9.50;99.90;;;;;;5030353;28;20411;-77
2021/09/22 03:15:44;;;;;;;0.40;0.30;;;9.50;99.90;;;;;;5030101;28;20680;-77
2021/09/22 03:18:10;;;;;;;0.40;0.20;;;9.40;99.90;;;;;;5030478;28;20376;-77
2021/09/22 03:20:35;;;;;;;0.40;0.20;;;9.40;99.90;;;;;;5029933;28;20429;-78
2021/09/22 03:23:01;;;;;;;0.40;0.30;;;9.40;99.90;;;;;;5030215;28;20473;-77
2021/09/22 03:25:26;;;;;;;0.40;0.30;;;9.50;99.90;;;;;;5030295;28;20387;-78
2021/09/22 03:27:52;;;;;;;0.40;0.20;;;9.40;99.90;;;;;;5029563;28;20927;-77
2021/09/22 03:30:18;;;;;;;0.40;0.30;;;9.30;99.90;;;;;;5030746;28;20470;-77
2021/09/22 03:32:43;;;;;;;0.40;0.30;;;9.30;99.90;;;;;;5031235;28;20379;-77
2021/09/22 03:35:09;;;;;;;0.40;0.30;;;9.40;99.90;;;;;;5034130;28;20375;-77
2021/09/22 03:37:35;;;;;;;0.40;0.30;;;9.40;99.90;;;;;;5033137;28;20938;-78
2021/09/22 03:40:01;;;;;;;0.40;0.20;;;9.40;99.90;;;;;;5033996;28;20504;-77
2021/09/22 03:42:27;;;;;;;0.40;0.20;;;9.40;99.90;;;;;;5033810;28;20890;-77
2021/09/22 03:44:52;;;;;;;0.40;0.20;;;9.40;99.90;;;;;;5032943;28;20388;-75
2021/09/22 03:47:18;;;;;;;0.40;0.20;;;9.30;99.90;;;;;;5033456;28;20390;-76
2021/09/22 03:49:43;;;;;;;0.40;0.30;;;9.20;99.90;;;;;;5015368;28;20391;-76
2021/09/22 03:52:09;;;;;;;0.40;0.20;;;9.20;99.90;;;;;;5033761;28;20390;-76
2021/09/22 03:54:35;;;;;;;0.40;0.30;;;9.20;99.90;;;;;;5033699;28;20383;-78
2021/09/22 03:57:00;;;;;;;0.40;0.20;;;9.10;99.90;;;;;;5033505;28;20379;-76
2021/09/22 03:59:26;;;;;;;0.40;0.30;;;9.20;99.90;;;;;;5033615;28;20402;-76
2021/09/22 04:01:52;;;;;;;0.40;0.20;;;9.30;99.90;;;;;;5033161;28;20434;-76
2021/09/22 04:04:17;;;;;;;0.40;0.30;;;9.20;99.90;;;;;;5033721;28;20482;-77
2021/09/22 04:06:43;;;;;;;0.40;0.20;;;9.40;99.90;;;;;;5030046;28;20398;-77
2021/09/22 04:09:10;;;;;;;0.40;0.20;;;9.30;99.90;;;;;;5013874;28;20935;-77
2021/09/22 04:11:37;;;;;;;0.40;0.30;;;9.10;99.90;;;;;;5013548;28;20393;-78
2021/09/22 04:14:03;;;;;;;0.40;0.30;;;9.20;99.90;;;;;;5014109;28;20727;-77
2021/09/22 04:16:29;;;;;;;0.40;0.30;;;9.30;99.90;;;;;;4996355;28;20742;-77
2021/09/22 04:18:54;;;;;;;0.40;0.30;;;9.10;99.90;;;;;;4995707;28;20393;-77
2021/09/22 04:21:20;;;;;;;0.40;0.30;;;9.10;99.90;;;;;;5013450;28;20415;-75
2021/09/22 04:23:45;;;;;;;0.40;0.20;;;9.20;99.90;;;;;;5013408;28;20397;-77
2021/09/22 04:26:11;;;;;;;0.40;0.30;;;9.20;99.90;;;;;;5013883;28;20725;-77
2021/09/22 04:28:37;;;;;;;0.40;0.30;;;9.10;99.90;;;;;;5013366;28;20459;-77
2021/09/22 04:31:03;;;;;;;0.40;0.30;;;9.20;99.90;;;;;;5013624;28;20726;-77
2021/09/22 04:33:28;;;;;;;0.40;0.30;;;9.20;99.90;;;;;;5013454;28;20417;-76
2021/09/22 04:35:55;;;;;;;0.40;0.30;;;9.20;99.90;;;;;;5012987;28;20381;-76
2021/09/22 04:38:22;;;;;;;0.40;0.30;;;9.10;99.90;;;;;;5013363;28;20703;-76
2021/09/22 04:40:48;;;;;;;0.40;0.30;;;9.00;99.90;;;;;;5012561;28;20408;-76
2021/09/22 04:43:13;;;;;;;0.40;0.20;;;9.10;99.90;;;;;;4995547;28;20419;-77
2021/09/22 04:45:39;;;;;;;0.40;0.30;;;9.20;99.90;;;;;;5011965;28;20750;-77
2021/09/22 04:48:06;;;;;;;0.40;0.30;;;9.40;99.90;;;;;;5013100;28;20508;-77
2021/09/22 04:50:32;;;;;;;0.40;0.30;;;9.30;99.90;;;;;;5013100;28;20433;-77
2021/09/22 04:52:58;;;;;;;0.40;0.30;;;9.40;99.90;;;;;;5012613;28;20502;-77
2021/09/22 04:55:24;;;;;;;0.40;0.20;;;9.30;99.90;;;;;;5012925;28;20384;-78
2021/09/22 04:57:49;;;;;;;0.40;0.30;;;9.30;99.90;;;;;;4994951;28;20389;-77
2021/09/22 05:00:16;;;;;;;0.40;0.30;;;9.50;99.90;;;;;;5013138;28;20410;-78
2021/09/22 05:02:41;;;;;;;0.40;0.20;;;9.50;99.90;;;;;;5012603;28;20741;-78
2021/09/22 05:05:08;;;;;;;0.40;0.30;;;9.50;99.90;;;;;;5012921;28;20393;-78
2021/09/22 05:07:33;;;;;;;0.40;0.20;;;9.40;99.90;;;;;;5022559;28;20486;-78
2021/09/22 05:09:59;;;;;;;0.40;0.20;;;9.40;99.90;;;;;;5031822;28;20462;-78
2021/09/22 05:12:24;;;;;;;0.40;0.30;;;9.40;99.90;;;;;;5032456;28;20386;-77
2021/09/22 05:14:50;;;;;;;0.40;0.20;;;9.30;99.90;;;;;;5031190;28;20433;-78
2021/09/22 05:17:16;;;;;;;0.40;0.30;;;9.30;99.90;;;;;;5013938;28;20391;-78
2021/09/22 05:19:41;;;;;;;0.40;0.20;;;9.30;99.90;;;;;;5014079;28;20441;-79
2021/09/22 05:22:07;;;;;;;0.40;0.20;;;9.20;99.90;;;;;;5032344;28;20490;-78
2021/09/22 05:24:33;;;;;;;0.40;0.30;;;9.30;99.90;;;;;;5032302;28;20959;-78
2021/09/22 05:26:58;;;;;;;0.40;0.30;;;9.40;99.90;;;;;;5014148;28;20437;-77
2021/09/22 05:29:24;;;;;;;0.40;0.20;;;9.20;99.90;;;;;;5032257;28;20466;-77
2021/09/22 05:31:50;;;;;;;0.40;0.30;;;9.20;99.90;;;;;;5011778;28;20406;-78
2021/09/22 05:34:15;;;;;;;0.40;0.30;;;9.20;99.90;;;;;;5028668;28;20388;-78
2021/09/22 05:36:41;;;;;;;0.40;0.30;;;9.30;99.90;;;;;;5018917;28;20391;-79
2021/09/22 05:39:07;;;;;;;0.40;0.40;;;9.30;99.90;;;;;;5012448;28;20422;-78
2021/09/22 05:41:33;;;;;;;0.40;0.30;;;9.40;99.90;;;;;;5029452;28;20510;-77
2021/09/22 05:43:59;;;;;;;0.40;0.30;;;9.40;99.90;;;;;;5019814;28;20457;-78
2021/09/22 05:46:24;;;;;;;0.40;0.30;;;9.40;99.90;;;;;;5016915;28;20421;-78
2021/09/22 05:48:50;;;;;;;0.40;0.30;;;9.30;99.90;;;;;;5016610;28;20399;-78
2021/09/22 05:51:16;;;;;;;0.40;0.20;;;9.40;99.90;;;;;;5018571;28;21155;-77
2021/09/22 05:53:43;;;;;;;0.40;0.20;;;9.40;99.90;;;;;;5030122;28;20472;-77
2021/09/22 05:56:10;;;;;;;0.40;0.20;;;9.40;99.90;;;;;;5027960;28;20383;-77
2021/09/22 05:58:35;;;;;;;0.40;0.40;;;9.50;99.90;;;;;;5020192;28;20373;-78
2021/09/22 06:01:01;;;;;;;0.40;0.30;;;9.50;99.90;;;;;;4995937;28;20425;-78
2021/09/22 06:03:26;;;;;;;0.40;0.20;;;9.60;99.90;;;;;;5018930;28;20492;-77
2021/09/22 06:05:52;;;;;;;0.40;0.30;;;9.50;99.90;;;;;;5028499;28;20465;-78
2021/09/22 06:08:18;;;;;;;0.40;0.30;;;9.60;99.90;;;;;;5028932;28;20790;-78
2021/09/22 06:10:44;;;;;;;0.40;0.30;;;9.80;99.90;;;;;;5030760;28;20807;-78
2021/09/22 06:13:10;;;;;;;0.40;0.30;;;9.70;99.90;;;;;;5030464;28;20442;-77
2021/09/22 06:15:36;;;;;;;0.40;0.30;;;9.70;99.90;;;;;;5028242;28;20428;-77
2021/09/22 06:18:02;;;;;;;0.40;0.20;;;9.80;99.90;;;;;;5020016;28;20439;-77
2021/09/22 06:20:28;;;;;;;0.40;0.20;;;9.80;99.90;;;;;;5010339;28;20396;-77
2021/09/22 06:22:53;;;;;;;0.40;0.30;;;10.00;99.90;;;;;;5009939;28;20602;-78
2021/09/22 06:25:25;;;;;;;0.60;0.60;;;10.20;99.90;;;;;;5010785;28;20468;-77
2021/09/22 06:27:51;;;;;;;0.40;0.20;;;10.20;99.90;;;;;;5010633;28;20947;-78
2021/09/22 06:30:16;;;;;;;0.40;0.20;;;10.20;99.90;;;;;;5011161;28;20388;-77
2021/09/22 06:32:42;;;;;;;0.40;0.20;;;10.20;99.90;;;;;;4993839;28;20393;-76
2021/09/22 06:35:09;;;;;;;0.50;0.40;;;10.10;99.90;;;;;;5010577;28;20385;-77
2021/09/22 06:37:36;;;;;;;0.40;0.30;;;10.10;99.90;;;;;;5011214;28;20725;-77
2021/09/22 06:40:04;;;;;;;0.40;0.20;;;10.00;99.90;;;;;;5010406;28;20433;-77
2021/09/22 06:42:29;;;;;;;0.40;0.20;;;10.00;99.90;;;;;;5011387;28;20437;-77
2021/09/22 06:44:55;;;;;;;0.40;0.30;;;9.90;99.90;;;;;;5010446;28;20400;-77
2021/09/22 06:47:21;;;;;;;0.40;0.20;;;10.00;99.90;;;;;;5011530;28;20379;-77
2021/09/22 06:49:46;;;;;;;0.40;0.20;;;10.10;99.90;;;;;;5010661;28;20416;-77
2021/09/22 06:52:12;;;;;;;0.40;0.30;;;10.20;99.90;;;;;;5011302;28;20439;-77
2021/09/22 06:54:38;;;;;;;0.40;0.20;;;10.20;99.90;;;;;;5011463;28;20400;-77
2021/09/22 06:57:04;;;;;;;0.40;0.20;;;10.40;99.90;;;;;;5010684;28;20385;-77
2021/09/22 06:59:29;;;;;;;0.40;0.20;;;10.40;99.90;;;;;;5011161;28;20376;-77
2021/09/22 07:01:55;;;;;;;0.40;0.20;;;10.50;99.90;;;;;;5010697;28;20761;-77
2021/09/22 07:04:21;;;;;;;0.40;0.20;;;10.50;99.90;;;;;;4993582;28;20912;-75
2021/09/22 07:06:46;;;;;;;0.40;0.20;;;10.50;99.90;;;;;;5013990;28;20390;-79
2021/09/22 07:09:12;;;;;;;0.40;0.20;;;10.60;99.90;;;;;;5016771;28;20391;-76
2021/09/22 07:11:38;;;;;;;0.40;0.30;;;10.70;99.90;;;;;;5034599;28;20391;-76
2021/09/22 07:14:04;;;;;;;0.40;0.20;;;10.70;99.90;;;;;;5033632;28;20749;-74
2021/09/22 07:16:29;;;;;;;0.40;0.20;;;10.40;99.90;;;;;;5034745;28;20416;-73
2021/09/22 07:18:56;;;;;;;0.40;0.20;;;10.30;99.90;;;;;;5033813;28;20375;-76
2021/09/22 07:21:23;;;;;;;0.40;0.22;;;10.40;99.90;;;;;;5034651;28;20454;-74
2021/09/22 07:23:48;;;;;;;0.40;0.20;;;10.50;99.90;;;;;;5016191;28;20783;-76
2021/09/22 07:26:15;;;;;;;0.40;0.20;;;10.60;99.90;;;;;;5034944;28;20471;-76
2021/09/22 07:28:40;;;;;;;0.40;0.20;;;10.70;99.90;;;;;;5034319;28;20468;-75
2021/09/22 07:31:06;;;;;;;0.40;0.20;;;10.80;99.90;;;;;;5033484;28;20391;-75
2021/09/22 07:33:32;;;;;;;0.50;0.50;;;10.50;99.90;;;;;;5034004;28;20505;-76
2021/09/22 07:35:58;;;;;;;0.40;0.20;;;10.70;99.90;;;;;;5033587;28;20383;-75
2021/09/22 07:38:24;;;;;;;0.40;0.30;;;10.80;99.90;;;;;;5034244;28;20471;-73
2021/09/22 07:40:49;;;;;;;0.40;0.20;;;10.80;99.90;;;;;;5033740;28;20435;-75
2021/09/22 07:43:15;;;;;;;0.40;0.20;;;10.80;99.90;;;;;;5034443;28;20395;-75
2021/09/22 07:45:41;;;;;;;0.40;0.30;;;10.90;99.90;;;;;;5033944;28;20394;-75
2021/09/22 07:48:07;;;;;;;0.40;0.30;;;10.90;99.90;;;;;;5033749;28;20399;-76
2021/09/22 07:50:34;;;;;;;0.40;0.30;;;11.00;99.90;;;;;;5016038;28;20452;-76
2021/09/22 07:52:59;;;;;;;0.40;0.20;;;11.00;99.90;;;;;;5015505;28;20465;-76
2021/09/22 07:55:25;;;;;;;0.40;0.20;;;10.90;99.90;;;;;;5016076;28;20391;-74
2021/09/22 07:57:54;;;;;;;0.40;0.20;;;11.00;99.90;;;;;;5033273;28;20403;-75
2021/09/22 08:00:21;;;;;;;0.40;0.20;;;11.00;99.90;;;;;;5033684;28;20458;-75
2021/09/22 08:02:46;;;;;;;0.40;0.25;;;11.20;99.90;;;;;;5034124;28;20398;-74
2021/09/22 08:05:12;;;;;;;0.40;0.30;;;11.40;99.90;;;;;;5032853;28;20376;-75
2021/09/22 08:07:38;;;;;;;0.40;0.20;;;11.30;99.90;;;;;;5023243;28;20516;-76
2021/09/22 08:10:07;;;;;;;0.40;0.20;;;11.60;99.90;;;;;;5013475;28;20540;-76
2021/09/22 08:12:33;;;;;;;0.40;0.20;;;11.30;99.90;;;;;;5013387;28;20815;-77
2021/09/22 08:14:59;;;;;;;0.40;0.20;;;11.50;99.90;;;;;;5013321;28;20401;-77
2021/09/22 08:17:25;;;;;;;0.40;0.30;;;11.60;99.90;;;;;;5013817;28;20377;-75
2021/09/22 08:19:50;;;;;;;0.40;0.20;;;11.80;99.90;;;;;;4994918;28;20385;-77
2021/09/22 08:22:18;;;;;;;0.40;0.20;;;11.50;99.90;;;;;;5013738;28;20405;-77
2021/09/22 08:24:44;;;;;;;0.40;0.30;;;11.70;99.90;;;;;;5013597;28;20388;-77
2021/09/22 08:27:12;;;;;;;0.40;0.30;;;11.70;99.90;;;;;;5013288;28;20393;-77
2021/09/22 08:29:37;;;;;;;0.40;0.25;;;11.60;99.90;;;;;;5013314;28;20428;-75
2021/09/22 08:32:03;;;;;;;0.50;0.50;;;11.30;99.90;;;;;;5012543;28;20385;-77
2021/09/22 08:34:29;;;;;;;0.40;0.30;;;11.40;99.90;;;;;;4995776;28;20435;-77
2021/09/22 08:36:55;;;;;;;0.40;0.30;;;11.50;99.90;;;;;;4995241;28;20435;-77
2021/09/22 08:39:20;;;;;;;0.40;0.20;;;11.70;99.90;;;;;;5013371;28;20417;-77
2021/09/22 08:41:48;;;;;;;0.40;0.30;;;11.60;99.90;;;;;;5012864;28;20927;-76
2021/09/22 08:44:14;;;;;;;0.40;0.30;;;11.70;99.90;;;;;;5012635;28;20388;-76
2021/09/22 08:46:41;;;;;;;0.40;0.20;;;11.70;99.90;;;;;;5012938;28;20392;-74
2021/09/22 08:49:08;;;;;;;0.40;0.20;;;11.50;99.90;;;;;;5012173;28;20392;-75
2021/09/22 08:51:34;;;;;;;0.40;0.30;;;11.50;99.90;;;;;;4995440;28;20819;-75
2021/09/22 08:54:01;;;;;;;0.40;0.20;;;11.50;99.90;;;;;;5012542;28;20464;-75
2021/09/22 08:56:27;;;;;;;0.40;0.30;;;11.50;99.90;;;;;;5012997;28;20766;-75
2021/09/22 08:58:53;;;;;;;0.40;0.30;;;11.50;99.90;;;;;;5012426;28;20391;-77
2021/09/22 09:01:21;;;;;;;0.40;0.30;;;11.70;99.90;;;;;;4995143;28;20827;-76
2021/09/22 09:03:47;;;;;;;0.40;0.30;;;11.90;99.90;;;;;;5012868;28;20385;-75
2021/09/22 09:06:34;;;;;;;0.40;0.30;;;11.80;99.90;;;;;;5012161;28;20752;-75
2021/09/22 09:09:01;;;;;;;0.40;0.30;;;11.70;99.90;;;;;;5012302;28;20389;-75
2021/09/22 09:11:32;;;;;;;0.40;0.30;;;11.80;99.90;;;;;;5012618;28;20428;-75
2021/09/22 09:14:01;;;;;;;0.40;0.30;;;11.90;99.90;;;;;;5011975;28;20413;-76
2021/09/22 09:16:37;;;;;;;0.40;0.20;;;12.00;99.90;;;;;;5012370;28;20888;-75
2021/09/22 09:19:17;;;;;;;0.40;0.30;;;12.10;99.90;;;;;;5012082;28;20472;-76
2021/09/22 09:21:58;;;;;;;0.40;0.30;;;12.20;99.90;;;;;;5011215;28;20409;-74
2021/09/22 09:24:37;;;;;;;0.40;0.30;;;12.30;99.90;;;;;;5012976;28;20388;-73
2021/09/22 09:27:08;;;;;;;0.40;0.20;;;12.40;99.90;;;;;;4994265;28;20396;-74
2021/09/22 09:29:35;;;;;;;0.40;0.20;;;12.40;99.90;;;;;;5011395;28;20431;-74
2021/09/22 09:32:16;;;;;;;0.40;0.30;;;12.50;99.90;;;;;;5011368;28;20477;-76
2021/09/22 09:35:05;;;;;;;0.40;0.20;;;12.50;99.90;;;;;;5012576;28;20395;-76
2021/09/22 09:37:35;;;;;;;0.40;0.30;;;12.80;99.90;;;;;;5012346;28;20520;-78
2021/09/22 09:40:21;;;;;;;0.40;0.20;;;12.90;99.90;;;;;;5011656;28;20389;-76
2021/09/22 09:42:50;;;;;;;0.40;0.30;;;12.80;99.90;;;;;;5012644;28;20416;-74
2021/09/22 09:45:19;;;;;;;0.40;0.30;;;12.90;99.90;;;;;;5011484;28;20436;-76
2021/09/22 09:48:03;;;;;;;0.40;0.20;;;12.90;99.90;;;;;;5012093;28;20392;-76
2021/09/22 09:50:30;;;;;;;0.40;0.20;;;13.00;99.90;;;;;;5010673;28;20454;-76
2021/09/22 09:53:00;;;;;;;0.40;0.30;;;13.10;99.90;;;;;;5011983;28;20430;-75
2021/09/22 09:55:26;;;;;;;0.40;0.30;;;13.00;99.90;;;;;;5012078;28;20934;-75
2021/09/22 09:57:54;;;;;;;0.40;0.30;;;13.10;99.90;;;;;;5011943;28;20412;-76
2021/09/22 10:00:42;;;;;;;0.40;0.30;;;13.20;99.90;;;;;;5011020;28;20840;-76
2021/09/22 10:03:15;;;;;;;0.40;0.30;;;13.30;99.90;;;;;;5010417;28;20449;-76
2021/09/22 10:05:40;;;;;;;0.70;0.70;;;13.50;99.90;;;;;;5011900;28;20380;-74
2021/09/22 10:08:06;;;;;;;0.40;0.30;;;13.40;99.90;;;;;;5011232;28;20845;-76
2021/09/22 10:10:33;;;;;;;0.90;0.60;;;13.40;99.90;;;;;;5011824;28;20392;-75
2021/09/22 10:13:00;;;;;;;0.40;0.30;;;13.50;99.90;;;;;;5010549;28;20897;-76
2021/09/22 10:15:30;;;;;;;0.40;0.20;;;13.80;99.90;;;;;;5011566;28;20404;-73
2021/09/22 10:17:57;;;;;;;0.40;0.20;;;13.60;99.90;;;;;;5011678;28;20873;-75
2021/09/22 10:20:23;;;;;;;0.40;0.20;;;13.80;99.90;;;;;;5011469;28;20471;-76
2021/09/22 10:22:49;;;;;;;0.40;0.20;;;14.00;99.90;;;;;;5011444;28;20488;-75
2021/09/22 10:25:17;;;;;;;0.40;0.20;;;14.10;99.90;;;;;;5010992;28;20377;-75
2021/09/22 10:27:48;;;;;;;1.80;0.80;;;14.10;99.90;;;;;;5011064;28;20380;-76
2021/09/22 10:30:15;;;;;;;0.40;0.30;;;14.20;99.90;;;;;;5010942;28;20377;-76
2021/09/22 10:32:48;;;;;;;0.40;0.30;;;14.20;99.90;;;;;;5010250;28;20801;-75
2021/09/22 10:35:26;;;;;;;0.40;0.20;;;14.30;99.90;;;;;;5010851;28;20439;-76
2021/09/22 10:37:57;;;;;;;0.40;0.22;;;14.30;99.90;;;;;;5011284;28;20858;-73
2021/09/22 10:40:51;;;;;;;0.40;0.30;;;14.50;99.90;;;;;;5010599;28;20408;-72
2021/09/22 10:43:16;;;;;;;0.40;0.20;;;14.50;99.90;;;;;;5013177;28;20739;-72
2021/09/22 10:46:00;;;;;;;0.40;0.20;;;14.70;99.90;;;;;;5015103;28;20454;-74
2021/09/22 10:48:26;;;;;;;0.40;0.20;;;14.80;99.90;;;;;;5015314;28;20373;-74
2021/09/22 10:50:58;;;;;;;0.40;0.25;;;14.90;99.90;;;;;;5015244;28;20392;-75
2021/09/22 10:53:32;;;;;;;0.40;0.30;;;15.10;99.90;;;;;;5014635;28;20472;-74
2021/09/22 10:56:09;;;;;;;0.80;0.80;;;15.30;99.90;;;;;;5015250;28;20392;-76
2021/09/22 10:58:55;;;;;;;0.40;0.20;;;15.50;99.90;;;;;;5015223;28;20382;-75
2021/09/22 11:01:33;;;;;;;0.40;0.30;;;15.40;99.90;;;;;;5014483;28;20412;-74
2021/09/22 11:04:06;;;;;;;0.40;0.30;;;15.50;99.90;;;;;;5014803;28;20424;-76
2021/09/22 11:09:22;;;;;;;0.40;0.20;;;15.80;99.90;;;;;;5034193;28;20474;-74
2021/09/22 11:11:56;;;;;;;0.40;0.30;;;16.00;99.90;;;;;;5034798;28;20398;-75
2021/09/22 11:15:03;;;;;;;0.40;0.20;;;16.40;99.90;;;;;;5016195;28;20810;-77
2021/09/22 11:17:29;;;;;;;0.40;0.30;;;16.60;99.90;;;;;;5012159;28;20387;-77
2021/09/22 11:20:00;;;;;;;0.40;0.30;;;17.00;99.90;;;;;;5034181;28;20383;-75
2021/09/22 11:22:29;;;;;;;0.40;0.30;;;17.10;99.90;;;;;;5034421;28;20485;-74
2021/09/22 11:25:11;;;;;;;0.40;0.20;;;17.40;99.90;;;;;;5034245;28;20899;-74
2021/09/22 11:27:37;;;;;;;0.40;0.30;;;18.30;99.90;;;;;;5034590;28;20387;-75
2021/09/22 11:30:07;;;;;;;0.50;0.50;;;19.30;99.70;;;;;;5033179;28;20481;-78
2021/09/22 11:32:42;;;;;;;0.40;0.30;;;19.60;98.00;;;;;;5033222;28;20460;-76
2021/09/22 11:35:14;;;;;;;0.40;0.20;;;19.30;97.50;;;;;;5015642;28;20386;-76
2021/09/22 11:37:51;;;;;;;0.40;0.20;;;19.40;97.60;;;;;;5033923;28;20394;-74
2021/09/22 11:40:31;;;;;;;0.40;0.30;;;18.20;98.80;;;;;;5015501;28;20795;-76
2021/09/22 11:43:10;;;;;;;0.40;0.30;;;19.40;96.80;;;;;;5033489;28;20471;-76
2021/09/22 11:45:43;;;;;;;0.40;0.30;;;19.80;96.60;;;;;;5033907;28;20427;-74
2021/09/22 11:48:11;;;;;;;0.40;0.30;;;19.80;96.20;;;;;;5033005;28;20399;-73
2021/09/22 11:50:40;;;;;;;0.40;0.30;;;19.50;96.40;;;;;;5015935;28;20875;-74
2021/09/22 11:53:12;;;;;;;0.40;0.30;;;19.70;96.20;;;;;;5032838;28;20433;-76
2021/09/22 11:55:39;;;;;;;0.40;0.30;;;19.80;95.00;;;;;;5033683;28;20458;-73
2021/09/22 11:58:07;;;;;;;0.40;0.27;;;19.70;94.70;;;;;;5033200;28;20569;-72
2021/09/22 12:00:32;;;;;;;0.40;0.30;;;19.10;95.50;;;;;;5033130;28;20410;-73
2021/09/22 12:02:58;;;;;;;0.40;0.30;;;19.60;95.80;;;;;;5015846;28;20402;-74
2021/09/22 12:05:25;;;;;;;0.40;0.30;;;19.70;96.50;;;;;;5030769;28;20401;-73
2021/09/22 12:07:55;;;;;;;0.40;0.30;;;19.00;96.80;;;;;;5027332;28;20391;-72
2021/09/22 12:10:23;;;;;;;0.40;0.30;;;18.90;96.80;;;;;;5018663;28;20686;-74
2021/09/22 12:12:49;;;;;;;0.40;0.30;;;19.40;97.00;;;;;;5015542;28;20411;-74
2021/09/22 12:15:15;;;;;;;0.40;0.20;;;19.50;96.60;;;;;;5033397;28;20380;-75
2021/09/22 12:17:42;;;;;;;0.40;0.30;;;19.10;98.80;;;;;;5017378;28;20849;-73
2021/09/22 12:20:12;;;;;;;0.40;0.20;;;19.60;96.40;;;;;;5013120;28;20381;-74
2021/09/22 12:22:40;;;;;;;0.40;0.30;;;20.20;96.20;;;;;;5013603;28;20474;-75
2021/09/22 12:25:07;;;;;;;0.40;0.20;;;20.70;96.20;;;;;;5013397;28;20388;-77
2021/09/22 12:27:34;;;;;;;1.20;0.90;;;20.90;94.20;;;;;;4995586;28;20404;-75
2021/09/22 12:30:09;;;;;;;0.40;0.30;;;20.20;97.10;;;;;;5013721;28;20381;-75
2021/09/22 12:32:55;;;;;;;0.40;0.30;;;20.30;97.20;;;;;;5013511;28;20392;-75
2021/09/22 12:35:22;;;;;;;0.40;0.20;;;20.60;95.20;;;;;;5013022;28;20385;-75
2021/09/22 12:37:57;;;;;;;0.40;0.30;;;19.30;95.70;;;;;;5013437;28;20372;-75
2021/09/22 12:40:27;;;;;;;0.40;0.30;;;19.80;96.70;;;;;;5015638;28;20474;-75
2021/09/22 12:42:53;;;;;;;0.40;0.30;;;19.70;96.00;;;;;;5019766;28;20433;-75
2021/09/22 12:45:33;;;;;;;0.40;0.30;;;20.40;96.90;;;;;;5019629;28;20433;-75
2021/09/22 12:48:05;;;;;;;0.40;0.30;;;20.70;95.60;;;;;;4996031;28;20431;-74
2021/09/22 12:50:38;;;;;;;0.40;0.22;;;20.60;93.70;;;;;;5003647;28;20806;-74
2021/09/22 12:53:15;;;;;;;0.40;0.30;;;20.60;93.20;;;;;;5013262;28;20443;-74
2021/09/22 12:55:46;;;;;;;0.40;0.30;;;20.40;94.60;;;;;;5013469;28;20377;-74